createdAt,value
2022-09-06T00:12:42.154Z,82.20
2022-09-06T00:15:07.770Z,81.90
2022-09-06T00:20:07.722Z,81.70
2022-09-06T00:25:07.640Z,81.26
2022-09-06T00:30:07.574Z,81.50
2022-09-06T00:35:07.502Z,81.60
2022-09-06T00:40:07.513Z,82.10
2022-09-06T00:45:07.397Z,82.54
2022-09-06T00:50:07.316Z,82.94
2022-09-06T00:55:07.254Z,83.04
2022-09-06T01:00:07.198Z,82.84
2022-09-06T01:05:07.115Z,82.40
2022-09-06T01:10:07.068Z,81.90
2022-09-06T01:15:07.000Z,81.60
2022-09-06T01:20:06.921Z,81.40
2022-09-06T01:25:06.845Z,81.40
2022-09-06T01:30:06.803Z,81.53
2022-09-06T01:35:06.721Z,81.64
2022-09-06T01:40:06.766Z,81.84
2022-09-06T01:45:06.593Z,82.18
2022-09-06T01:50:06.541Z,82.28
2022-09-06T01:55:06.461Z,82.58
2022-09-06T02:00:06.405Z,82.82
2022-09-06T02:05:06.337Z,83.22
2022-09-06T02:10:06.271Z,83.22
2022-09-06T02:15:06.207Z,83.42
2022-09-06T02:20:06.154Z,83.63
2022-09-06T02:25:06.088Z,83.42
2022-09-06T02:30:06.026Z,83.63
2022-09-06T02:35:05.941Z,83.22
2022-09-06T02:40:05.997Z,82.72
2022-09-06T02:45:05.816Z,82.31
2022-09-06T02:50:05.768Z,82.22
2022-09-06T02:55:05.681Z,81.95
2022-09-06T03:00:05.629Z,82.25
2022-09-06T03:05:05.552Z,83.26
2022-09-06T03:10:05.496Z,84.71
2022-09-06T03:15:05.416Z,87.21
2022-09-06T03:20:05.370Z,89.36
2022-09-06T03:25:05.298Z,90.57
2022-09-06T03:30:05.241Z,91.48
2022-09-06T03:35:05.160Z,92.08
2022-09-06T03:40:05.167Z,91.48
2022-09-06T03:45:05.041Z,91.08
2022-09-06T03:50:04.981Z,90.97
2022-09-06T03:55:04.931Z,90.88
2022-09-06T04:00:04.847Z,90.33
2022-09-06T04:05:04.803Z,90.23
2022-09-06T04:10:04.720Z,90.67
2022-09-06T04:15:04.661Z,91.04
2022-09-06T04:20:04.589Z,90.53
2022-09-06T04:25:04.543Z,90.83
2022-09-06T04:30:04.461Z,90.33
2022-09-06T04:35:04.416Z,90.43
2022-09-06T04:40:04.432Z,90.93
2022-09-06T04:45:04.282Z,91.04
2022-09-06T04:50:04.200Z,90.93
2022-09-06T04:55:04.138Z,91.24
2022-09-06T05:00:04.073Z,91.04
2022-09-06T05:05:04.006Z,91.04
2022-09-06T05:10:03.932Z,90.83
2022-09-06T05:15:03.888Z,90.93
2022-09-06T05:20:03.802Z,90.97
2022-09-06T05:25:03.756Z,90.97
2022-09-06T05:30:03.672Z,91.28
2022-09-06T05:35:03.628Z,91.32
2022-09-06T05:40:03.650Z,91.48
2022-09-06T05:45:03.497Z,91.18
2022-09-06T05:50:03.405Z,92.23
2022-09-06T05:55:03.344Z,91.68
2022-09-06T06:00:03.277Z,91.48
2022-09-06T06:05:03.218Z,91.58
2022-09-06T06:10:03.145Z,91.18
2022-09-06T06:15:03.085Z,90.43
2022-09-06T06:20:03.027Z,89.64
2022-09-06T06:25:02.967Z,88.53
2022-09-06T06:30:02.884Z,87.24
2022-09-06T06:35:02.834Z,86.64
2022-09-06T06:40:02.843Z,86.44
2022-09-06T06:45:02.709Z,86.29
2022-09-06T06:50:02.636Z,85.69
2022-09-06T06:55:02.591Z,86.60
2022-09-06T07:00:02.512Z,85.79
2022-09-06T07:05:02.582Z,85.35
2022-09-06T07:15:03.350Z,83.12
2022-09-06T07:20:17.652Z,81.98
2022-09-06T07:25:03.220Z,79.96
2022-09-06T07:30:02.118Z,76.45
2022-09-06T07:35:02.063Z,76.89
2022-09-06T07:40:02.041Z,76.89
2022-09-06T07:45:02.136Z,76.98
2022-09-06T07:55:02.821Z,73.48
2022-09-06T08:00:01.728Z,67.73
2022-09-06T08:05:01.886Z,69.49
2022-09-06T08:10:01.589Z,69.26
2022-09-06T08:15:01.537Z,66.08
2022-09-06T08:20:01.481Z,59.44
2022-09-06T08:25:01.411Z,55.52
2022-09-06T08:30:01.340Z,53.80
2022-09-06T08:35:01.286Z,52.25
2022-09-06T08:40:01.290Z,50.41
2022-09-06T08:45:01.163Z,49.72
2022-09-06T08:50:01.088Z,50.29
2022-09-06T08:55:01.025Z,48.79
2022-09-06T09:00:00.957Z,49.43
2022-09-06T09:05:00.898Z,50.78
2022-09-06T09:10:00.845Z,49.94
2022-09-06T09:15:00.786Z,50.39
2022-09-06T09:20:00.714Z,50.36
2022-09-06T09:25:00.663Z,53.36
2022-09-06T09:35:01.568Z,61.23
2022-09-06T09:40:00.523Z,63.30
2022-09-06T09:45:00.405Z,64.22
2022-09-06T09:50:00.332Z,65.67
2022-09-06T09:55:00.277Z,66.30
2022-09-06T10:00:00.215Z,67.20
2022-09-06T10:05:00.190Z,67.13
2022-09-06T10:10:00.108Z,67.37
2022-09-06T10:15:03.588Z,68.49
2022-09-06T10:19:59.963Z,67.96
2022-09-06T10:24:59.893Z,67.04
2022-09-06T10:29:59.817Z,66.93
2022-09-06T10:34:59.766Z,67.04
2022-09-06T10:39:59.750Z,67.53
2022-09-06T10:44:59.815Z,67.83
2022-09-06T10:49:59.569Z,64.58
2022-09-06T10:54:59.520Z,65.53
2022-09-06T10:59:59.437Z,66.96
2022-09-06T11:10:00.332Z,68.89
2022-09-06T11:14:59.250Z,69.42
2022-09-06T11:19:59.195Z,70.75
2022-09-06T11:24:59.128Z,74.32
2022-09-06T11:29:59.063Z,78.19
2022-09-06T11:34:59.002Z,80.52
2022-09-06T11:44:59.889Z,81.17
2022-09-06T11:49:58.793Z,80.96
2022-09-06T11:54:58.744Z,81.46
2022-09-06T11:59:58.672Z,84.41
2022-09-06T12:05:00.502Z,84.25
2022-09-06T12:09:58.530Z,83.48
2022-09-06T12:14:58.483Z,84.08
2022-09-06T12:19:58.415Z,83.44
2022-09-06T12:24:58.362Z,84.00
2022-09-06T12:29:58.288Z,82.97
2022-09-06T12:39:59.209Z,82.97
2022-09-06T12:44:58.086Z,83.83
2022-09-06T12:49:58.009Z,79.29
2022-09-06T12:54:57.968Z,78.61
2022-09-06T12:59:57.890Z,78.01
2022-09-06T13:04:57.836Z,75.81
2022-09-06T13:09:57.754Z,77.58
2022-09-06T13:14:57.707Z,77.74
2022-09-06T13:19:57.621Z,78.44
2022-09-06T13:24:57.577Z,75.94
2022-09-06T13:29:57.489Z,73.68
2022-09-06T13:34:57.430Z,72.54
2022-09-06T13:39:57.834Z,70.55
2022-09-06T13:45:01.402Z,71.58
2022-09-06T13:49:57.241Z,72.18
2022-09-06T13:54:57.172Z,70.58
2022-09-06T13:59:57.097Z,71.85
2022-09-06T14:04:57.046Z,68.82
2022-09-06T14:09:56.978Z,67.79
2022-09-06T14:14:56.927Z,67.56
2022-09-06T14:19:56.857Z,65.44
2022-09-06T14:24:56.797Z,67.16
2022-09-06T14:29:56.736Z,68.79
2022-09-06T14:34:56.659Z,68.82
2022-09-06T14:39:56.691Z,69.49
2022-09-06T14:44:56.542Z,70.42
2022-09-06T14:49:56.481Z,68.85
2022-09-06T14:54:56.418Z,67.76
2022-09-06T14:59:56.353Z,68.89
2022-09-06T15:04:56.291Z,69.82
2022-09-06T15:09:56.232Z,70.42
2022-09-06T15:14:56.167Z,71.42
2022-09-06T15:19:56.160Z,71.82
2022-09-06T15:24:56.029Z,72.51
2022-09-06T15:29:56.011Z,72.71
2022-09-06T15:34:55.911Z,74.74
2022-09-06T15:39:56.008Z,76.37
2022-09-06T15:44:55.765Z,77.67
2022-09-06T15:49:55.744Z,78.41
2022-09-06T15:54:55.642Z,78.47
2022-09-06T15:59:55.578Z,78.77
2022-09-06T16:04:55.510Z,79.77
2022-09-06T16:09:55.444Z,80.57
2022-09-06T16:14:55.378Z,81.17
2022-09-06T16:19:55.322Z,81.57
2022-09-06T16:24:55.242Z,81.27
2022-09-06T16:29:55.180Z,81.11
2022-09-06T16:34:55.104Z,81.51
2022-09-06T16:39:55.128Z,81.51
2022-09-06T16:44:54.981Z,81.31
2022-09-06T16:49:54.929Z,81.41
2022-09-06T16:54:54.845Z,82.01
2022-09-06T16:59:54.799Z,82.51
2022-09-06T17:04:54.718Z,82.84
2022-09-06T17:09:54.657Z,82.95
2022-09-06T17:14:54.594Z,82.75
2022-09-06T17:19:54.541Z,82.98
2022-09-06T17:24:54.462Z,83.09
2022-09-06T17:29:54.408Z,82.89
2022-09-06T17:34:54.321Z,82.89
2022-09-06T17:39:54.295Z,82.92
2022-09-06T17:44:54.192Z,83.03
2022-09-06T17:49:54.143Z,82.56
2022-09-06T17:54:54.060Z,82.76
2022-09-06T17:59:54.009Z,83.17
2022-09-06T18:04:54.052Z,83.61
2022-09-06T18:09:53.893Z,83.70
2022-09-06T18:14:53.807Z,82.80
2022-09-06T18:19:53.755Z,82.64
2022-09-06T18:24:58.021Z,82.75
2022-09-06T18:29:53.625Z,83.14
2022-09-06T18:34:53.540Z,83.64
2022-09-06T18:39:53.572Z,84.19
2022-09-06T18:44:53.423Z,84.59
2022-09-06T18:49:53.368Z,85.13
2022-09-06T18:54:53.284Z,85.33
2022-09-06T18:59:53.240Z,85.33
2022-09-06T19:04:53.166Z,85.43
2022-09-06T19:09:53.109Z,85.67
2022-09-06T19:14:53.035Z,85.97
2022-09-06T19:19:52.998Z,86.37
2022-09-06T19:24:52.907Z,86.71
2022-09-06T19:29:52.849Z,86.31
2022-09-06T19:34:52.779Z,86.35
2022-09-06T19:39:52.767Z,86.05
2022-09-06T19:44:52.632Z,85.65
2022-09-06T19:49:52.576Z,84.95
2022-09-06T19:54:52.501Z,84.75
2022-09-06T19:59:52.443Z,84.89
2022-09-06T20:04:52.364Z,85.59
2022-09-06T20:09:52.687Z,85.90
2022-09-06T20:14:52.232Z,86.10
2022-09-06T20:19:52.180Z,86.44
2022-09-06T20:24:52.092Z,86.84
2022-09-06T20:29:52.038Z,87.28
2022-09-06T20:34:51.970Z,87.79
2022-09-06T20:39:51.995Z,88.33
2022-09-06T20:44:51.829Z,88.43
2022-09-06T20:49:51.780Z,88.87
2022-09-06T20:54:51.693Z,88.67
2022-09-06T20:59:51.637Z,88.87
2022-09-06T21:04:51.570Z,89.08
2022-09-06T21:09:51.516Z,89.12
2022-09-06T21:14:51.438Z,89.12
2022-09-06T21:19:51.384Z,88.98
2022-09-06T21:24:51.318Z,89.02
2022-09-06T21:29:51.249Z,89.02
2022-09-06T21:34:51.192Z,89.42
2022-09-06T21:39:51.192Z,89.86
2022-09-06T21:44:51.052Z,90.37
2022-09-06T21:49:50.998Z,90.61
2022-09-06T21:54:50.925Z,90.92
2022-09-06T21:59:50.869Z,91.26
2022-09-06T22:04:50.792Z,91.66
2022-09-06T22:09:50.739Z,91.87
2022-09-06T22:14:50.674Z,92.07
2022-09-06T22:19:50.605Z,92.21
2022-09-06T22:24:50.547Z,92.12
2022-09-06T22:29:50.487Z,92.32
2022-09-06T22:34:50.403Z,92.46
2022-09-06T22:39:50.408Z,92.56
2022-09-06T22:44:50.269Z,92.46
2022-09-06T22:49:50.209Z,92.56
2022-09-06T22:54:50.133Z,92.56
2022-09-06T22:59:50.090Z,93.47
2022-09-06T23:04:50.078Z,94.98
2022-09-06T23:09:49.954Z,94.28
2022-09-06T23:14:49.872Z,93.47
2022-09-06T23:19:49.814Z,93.01
2022-09-06T23:24:49.750Z,92.40
2022-09-06T23:29:49.684Z,92.65
2022-09-06T23:34:49.609Z,93.05
2022-09-06T23:39:49.610Z,93.35
2022-09-06T23:44:49.479Z,93.50
2022-09-06T23:49:49.465Z,93.81
2022-09-06T23:54:49.356Z,95.83
2022-09-06T23:59:49.293Z,96.99
